Time;durP1;ratioP1;P1;durP2;ratioP2;P2;SDS_P1;SDS_P2;PMS_P1;PMS_P2;Temp;Humidity;BMP_temperature;BMP_pressure;BME280_temperature;BME280_humidity;BME280_pressure;Samples;Min_cycle;Max_cycle;Signal;HPM_P1;HPM_P2
2023/03/29 00:01:42;;;;;;;7.13;3.63;;;5.10;99.90;;;;;;5074433;28;20459;-67
2023/03/29 00:04:12;;;;;;;8.13;3.40;;;5.00;99.90;;;;;;5074530;28;20521;-67
2023/03/29 00:06:40;;;;;;;15.03;7.53;;;4.80;99.90;;;;;;5074553;28;21009;-67
2023/03/29 00:09:08;;;;;;;8.43;4.10;;;4.70;99.90;;;;;;5074380;28;20485;-67
2023/03/29 00:11:35;;;;;;;7.17;4.00;;;4.70;99.90;;;;;;5074612;28;20454;-66
2023/03/29 00:14:02;;;;;;;8.97;4.40;;;4.70;99.90;;;;;;5074410;28;20457;-67
2023/03/29 00:16:29;;;;;;;7.13;4.30;;;4.70;99.90;;;;;;5074026;28;20546;-67
2023/03/29 00:18:56;;;;;;;8.50;5.03;;;4.60;99.90;;;;;;5074113;28;20485;-66
2023/03/29 00:21:25;;;;;;;9.40;4.50;;;4.70;99.90;;;;;;5074186;28;20895;-67
2023/03/29 00:23:52;;;;;;;9.80;4.70;;;4.60;99.90;;;;;;5074077;28;20470;-66
2023/03/29 00:26:19;;;;;;;12.20;4.93;;;4.50;99.90;;;;;;5074140;28;20632;-67
2023/03/29 00:28:45;;;;;;;4.70;3.80;;;4.50;99.90;;;;;;5074006;28;20466;-66
2023/03/29 00:31:14;;;;;;;8.20;5.00;;;4.50;99.90;;;;;;5073796;28;20464;-67
2023/03/29 00:33:42;;;;;;;6.20;4.40;;;4.50;99.90;;;;;;5074022;28;20769;-67
2023/03/29 00:36:11;;;;;;;9.90;4.90;;;4.40;99.90;;;;;;5077681;28;20446;-66
2023/03/29 00:38:40;;;;;;;9.83;4.97;;;4.40;99.90;;;;;;5077705;28;20523;-67
2023/03/29 00:41:07;;;;;;;9.33;4.00;;;4.40;99.90;;;;;;5077646;28;20515;-66
2023/03/29 00:43:56;;;;;;;7.07;4.17;;;4.30;99.90;;;;;;5077752;28;20458;-67
2023/03/29 00:46:23;;;;;;;11.93;4.03;;;4.30;99.90;;;;;;5077394;28;20470;-67
2023/03/29 00:48:52;;;;;;;11.83;3.90;;;4.30;99.90;;;;;;5077515;28;20460;-66
2023/03/29 00:51:21;;;;;;;11.60;4.37;;;4.30;99.90;;;;;;5077520;28;20454;-66
2023/03/29 00:53:52;;;;;;;10.37;4.47;;;4.20;99.90;;;;;;5077735;28;20549;-67
2023/03/29 00:56:23;;;;;;;8.87;3.77;;;4.20;99.90;;;;;;5077643;28;20445;-67
2023/03/29 00:58:56;;;;;;;7.90;4.30;;;4.20;99.90;;;;;;5077843;28;20534;-66
2023/03/29 01:01:29;;;;;;;6.53;4.07;;;4.30;99.90;;;;;;5078093;28;20447;-66
2023/03/29 01:04:02;;;;;;;6.03;3.73;;;4.30;99.90;;;;;;5077562;28;20818;-67
2023/03/29 01:06:33;;;;;;;4.90;4.00;;;4.30;99.90;;;;;;5077610;28;20462;-66
2023/03/29 01:09:06;;;;;;;10.27;4.60;;;4.30;99.90;;;;;;5077660;28;20927;-65
2023/03/29 01:11:37;;;;;;;6.83;4.20;;;4.30;99.90;;;;;;5077864;28;20492;-66
2023/03/29 01:14:07;;;;;;;6.07;4.47;;;4.30;99.90;;;;;;5077722;28;20453;-66
2023/03/29 01:16:37;;;;;;;8.80;4.50;;;4.40;99.90;;;;;;5077603;28;20529;-66
2023/03/29 01:19:06;;;;;;;9.73;4.20;;;4.40;99.90;;;;;;5077463;28;20458;-66
2023/03/29 01:21:39;;;;;;;9.57;4.63;;;4.40;99.90;;;;;;5077364;28;20454;-67
2023/03/29 01:24:40;;;;;;;13.23;4.67;;;4.40;99.90;;;;;;5077282;28;20442;-67
2023/03/29 01:27:17;;;;;;;12.43;4.93;;;4.40;99.90;;;;;;5076422;28;20491;-66
2023/03/29 01:29:48;;;;;;;6.70;4.40;;;4.40;99.90;;;;;;5076560;28;20934;-66
2023/03/29 01:32:21;;;;;;;10.00;4.67;;;4.40;99.90;;;;;;5076906;28;20442;-66
2023/03/29 01:34:55;;;;;;;11.23;4.70;;;4.40;99.90;;;;;;5076648;28;20867;-67
2023/03/29 01:37:27;;;;;;;4.10;3.70;;;4.30;99.90;;;;;;5076734;28;20783;-68
2023/03/29 01:39:54;;;;;;;8.90;5.00;;;4.30;99.90;;;;;;5076558;28;20457;-67
2023/03/29 01:42:32;;;;;;;9.23;3.60;;;4.30;99.90;;;;;;5076527;28;20464;-67
2023/03/29 01:45:09;;;;;;;8.00;4.17;;;4.40;99.90;;;;;;5076335;28;20443;-67
2023/03/29 01:47:44;;;;;;;9.13;3.60;;;4.40;99.90;;;;;;5075448;28;20476;-66
2023/03/29 01:50:17;;;;;;;6.17;4.03;;;4.30;99.90;;;;;;5076055;28;20442;-67
2023/03/29 01:52:50;;;;;;;6.53;4.07;;;4.30;99.90;;;;;;5076191;28;20439;-67
2023/03/29 01:55:21;;;;;;;7.47;3.40;;;4.30;99.90;;;;;;5076835;28;20534;-67
2023/03/29 01:57:49;;;;;;;6.93;4.23;;;4.40;99.90;;;;;;5075899;28;20875;-67
2023/03/29 02:00:21;;;;;;;5.67;3.67;;;4.30;99.90;;;;;;5076331;28;20544;-67
2023/03/29 02:02:51;;;;;;;10.67;4.03;;;4.40;99.90;;;;;;5075870;28;20876;-67
2023/03/29 02:05:21;;;;;;;11.13;4.20;;;4.30;99.90;;;;;;5075653;28;20545;-66
2023/03/29 02:07:50;;;;;;;8.10;3.70;;;4.30;99.90;;;;;;5076182;28;20817;-66
2023/03/29 02:10:18;;;;;;;6.67;4.20;;;4.30;99.90;;;;;;5075778;28;20768;-67
2023/03/29 02:12:45;;;;;;;10.97;3.20;;;4.30;99.90;;;;;;5075294;28;20470;-66
2023/03/29 02:15:14;;;;;;;8.67;3.10;;;4.30;99.90;;;;;;5075393;28;20515;-67
2023/03/29 02:17:45;;;;;;;6.13;3.53;;;4.30;99.90;;;;;;5075773;28;20454;-67
2023/03/29 02:20:17;;;;;;;12.00;3.37;;;4.30;99.90;;;;;;5075690;28;20946;-67
2023/03/29 02:22:51;;;;;;;5.00;3.40;;;4.30;99.90;;;;;;5075388;28;20442;-66
2023/03/29 02:25:21;;;;;;;7.00;2.73;;;4.30;99.90;;;;;;5076139;28;20529;-67
2023/03/29 02:27:48;;;;;;;10.77;3.57;;;4.30;99.90;;;;;;5075491;28;20486;-67
2023/03/29 02:30:19;;;;;;;5.53;3.13;;;4.30;99.90;;;;;;5075485;28;20454;-67
2023/03/29 02:32:52;;;;;;;6.87;3.20;;;4.20;99.90;;;;;;5075726;28;20446;-66
2023/03/29 02:35:26;;;;;;;13.97;4.53;;;4.20;99.90;;;;;;5075491;28;20453;-66
2023/03/29 02:37:55;;;;;;;5.50;3.00;;;4.20;99.90;;;;;;5075371;28;20766;-66
2023/03/29 02:40:24;;;;;;;10.53;3.83;;;4.20;99.90;;;;;;5075322;28;20458;-66
2023/03/29 02:42:54;;;;;;;6.70;3.10;;;4.10;99.90;;;;;;5075163;28;20455;-67
2023/03/29 02:45:23;;;;;;;6.93;3.73;;;4.10;99.90;;;;;;5075155;28;20484;-67
2023/03/29 02:47:55;;;;;;;7.80;3.37;;;4.10;99.90;;;;;;5075042;28;20488;-66
2023/03/29 02:50:24;;;;;;;9.07;4.47;;;4.10;99.90;;;;;;5075139;28;20442;-66
2023/03/29 02:52:54;;;;;;;4.77;3.50;;;4.00;99.90;;;;;;5074773;28;20553;-67
2023/03/29 02:55:24;;;;;;;8.87;3.37;;;4.00;99.90;;;;;;5074893;28;20458;-67
2023/03/29 02:57:51;;;;;;;5.93;3.83;;;4.00;99.90;;;;;;5074294;28;20460;-66
2023/03/29 03:00:21;;;;;;;6.80;3.77;;;3.90;99.90;;;;;;5074766;28;20464;-67
2023/03/29 03:02:49;;;;;;;6.73;3.23;;;3.90;99.90;;;;;;5074711;28;20652;-67
2023/03/29 03:05:18;;;;;;;6.80;4.00;;;3.90;99.90;;;;;;5074984;28;20741;-67
2023/03/29 03:07:45;;;;;;;7.33;4.03;;;3.90;99.90;;;;;;5075944;28;20764;-67
2023/03/29 03:10:12;;;;;;;10.33;4.63;;;3.80;99.90;;;;;;5074888;28;20458;-67
2023/03/29 03:12:38;;;;;;;9.00;3.90;;;3.70;99.90;;;;;;5074967;28;20454;-67
2023/03/29 03:15:06;;;;;;;5.43;3.67;;;3.70;99.90;;;;;;5075075;28;20531;-67
2023/03/29 03:17:38;;;;;;;7.10;4.30;;;3.70;99.90;;;;;;5074475;28;20454;-67
2023/03/29 03:20:11;;;;;;;8.77;4.37;;;3.70;99.90;;;;;;5074834;28;20442;-67
2023/03/29 03:22:40;;;;;;;7.20;4.37;;;3.70;99.90;;;;;;5074509;28;20952;-67
2023/03/29 03:25:10;;;;;;;6.50;4.47;;;3.70;99.90;;;;;;5074957;28;20484;-67
2023/03/29 03:27:37;;;;;;;10.07;5.20;;;3.70;99.90;;;;;;5074775;28;20478;-67
2023/03/29 03:30:05;;;;;;;6.57;5.13;;;3.70;99.90;;;;;;5074926;28;20454;-67
2023/03/29 03:32:33;;;;;;;8.17;5.07;;;3.60;99.90;;;;;;5074639;28;20458;-67
2023/03/29 03:35:00;;;;;;;10.07;5.33;;;3.60;99.90;;;;;;5074696;28;20500;-67
2023/03/29 03:37:27;;;;;;;8.70;5.67;;;3.60;99.90;;;;;;5074616;28;20914;-66
2023/03/29 03:39:56;;;;;;;7.53;6.20;;;3.60;99.90;;;;;;5074760;28;20450;-66
2023/03/29 03:42:23;;;;;;;10.53;5.97;;;3.60;99.90;;;;;;5074996;28;20481;-68
2023/03/29 03:44:50;;;;;;;10.70;6.20;;;3.50;99.90;;;;;;5074340;28;20494;-66
2023/03/29 03:47:16;;;;;;;6.50;5.37;;;3.50;99.90;;;;;;5074745;28;20489;-66
2023/03/29 03:49:43;;;;;;;12.97;5.93;;;3.60;99.90;;;;;;5074684;28;20848;-66
2023/03/29 03:52:10;;;;;;;10.20;5.40;;;3.60;99.90;;;;;;5074390;28;20458;-67
2023/03/29 03:54:37;;;;;;;6.47;5.53;;;3.60;99.90;;;;;;5074753;28;20553;-66
2023/03/29 03:57:06;;;;;;;8.00;5.53;;;3.50;99.90;;;;;;5074552;28;21006;-67
2023/03/29 03:59:33;;;;;;;8.33;6.40;;;3.50;99.90;;;;;;5074220;28;20523;-67
2023/03/29 04:02:00;;;;;;;9.67;6.20;;;3.60;99.90;;;;;;5074102;28;20518;-67
2023/03/29 04:04:27;;;;;;;9.70;6.20;;;3.50;99.90;;;;;;5074051;28;20454;-67
2023/03/29 04:07:01;;;;;;;6.93;6.00;;;3.50;99.90;;;;;;5074264;28;20492;-67
2023/03/29 04:09:28;;;;;;;13.33;6.23;;;3.50;99.90;;;;;;5075034;28;20442;-67
2023/03/29 04:11:55;;;;;;;8.47;5.53;;;3.50;99.90;;;;;;5078100;28;20911;-67
2023/03/29 04:14:24;;;;;;;10.40;6.03;;;3.50;99.90;;;;;;5078584;28;20556;-66
2023/03/29 04:16:51;;;;;;;13.60;5.53;;;3.50;99.90;;;;;;5077722;28;20957;-65
2023/03/29 04:19:19;;;;;;;8.57;5.87;;;3.50;99.90;;;;;;5078273;28;20928;-67
2023/03/29 04:21:48;;;;;;;16.40;6.00;;;3.40;99.90;;;;;;5077813;28;20515;-67
2023/03/29 04:24:15;;;;;;;16.27;6.47;;;3.40;99.90;;;;;;5077943;28;20554;-67
2023/03/29 04:26:42;;;;;;;8.40;5.30;;;3.40;99.90;;;;;;5077578;28;20561;-67
2023/03/29 04:29:08;;;;;;;7.23;5.37;;;3.40;99.90;;;;;;5077781;28;20541;-68
2023/03/29 04:31:37;;;;;;;9.83;4.87;;;3.30;99.90;;;;;;5077471;28;20458;-66
2023/03/29 04:34:03;;;;;;;14.20;6.27;;;3.40;99.90;;;;;;5077704;28;20468;-67
2023/03/29 04:36:30;;;;;;;7.93;5.60;;;3.30;99.90;;;;;;5077705;28;20453;-66
2023/03/29 04:39:00;;;;;;;8.47;5.30;;;3.30;99.90;;;;;;5077762;28;20460;-66
2023/03/29 04:41:27;;;;;;;7.13;4.67;;;3.30;99.90;;;;;;5078216;28;20556;-67
2023/03/29 04:43:54;;;;;;;8.87;6.37;;;3.30;99.90;;;;;;5077873;28;20458;-67
2023/03/29 04:46:24;;;;;;;15.40;5.37;;;3.30;99.90;;;;;;5078048;28;20546;-66
2023/03/29 04:48:52;;;;;;;10.73;5.03;;;3.30;99.90;;;;;;5077394;28;20490;-67
2023/03/29 04:51:21;;;;;;;8.00;5.60;;;3.30;99.90;;;;;;5077301;28;20523;-66
2023/03/29 04:53:48;;;;;;;8.57;5.00;;;3.40;99.90;;;;;;5077360;28;20558;-67
2023/03/29 04:56:16;;;;;;;9.03;5.93;;;3.40;99.90;;;;;;5077278;28;20930;-67
2023/03/29 04:58:44;;;;;;;9.70;5.27;;;3.30;99.90;;;;;;5077355;28;20463;-67
2023/03/29 05:01:11;;;;;;;9.43;5.40;;;3.40;99.90;;;;;;5077588;28;20794;-68
2023/03/29 05:03:38;;;;;;;9.77;5.50;;;3.40;99.90;;;;;;5076789;28;20922;-67
2023/03/29 05:06:08;;;;;;;6.90;5.10;;;3.30;99.90;;;;;;5077236;28;20465;-67
2023/03/29 05:08:37;;;;;;;15.33;5.30;;;3.30;99.90;;;;;;5076830;28;20484;-68
2023/03/29 05:11:05;;;;;;;7.67;4.70;;;3.30;99.90;;;;;;5076996;28;20480;-68
2023/03/29 05:13:32;;;;;;;11.27;6.93;;;3.30;99.90;;;;;;5076679;28;20559;-67
2023/03/29 05:16:00;;;;;;;7.63;4.97;;;3.30;99.90;;;;;;5076703;28;20909;-67
2023/03/29 05:18:27;;;;;;;7.37;5.50;;;3.30;99.90;;;;;;5076982;28;20481;-66
2023/03/29 05:20:53;;;;;;;5.90;4.80;;;3.30;99.90;;;;;;5076097;28;20835;-67
2023/03/29 05:23:22;;;;;;;7.60;4.97;;;3.30;99.90;;;;;;5076639;28;20794;-67
2023/03/29 05:25:49;;;;;;;9.63;5.77;;;3.40;99.90;;;;;;5076992;28;20500;-68
2023/03/29 05:28:17;;;;;;;9.70;5.47;;;3.30;99.90;;;;;;5077066;28;20474;-68
2023/03/29 05:30:44;;;;;;;5.13;4.73;;;3.30;99.90;;;;;;5076892;28;20530;-67
2023/03/29 05:33:11;;;;;;;11.97;5.40;;;3.30;99.90;;;;;;5076664;28;20812;-67
2023/03/29 05:35:38;;;;;;;7.07;5.47;;;3.40;99.90;;;;;;5076589;28;20490;-68
2023/03/29 05:38:05;;;;;;;9.20;5.80;;;3.40;99.90;;;;;;5076535;28;20532;-66
2023/03/29 05:40:34;;;;;;;15.23;5.17;;;3.40;99.90;;;;;;5076355;28;20489;-68
2023/03/29 05:43:01;;;;;;;8.03;4.60;;;3.30;99.90;;;;;;5076961;28;20469;-67
2023/03/29 05:45:28;;;;;;;8.70;4.80;;;3.40;99.90;;;;;;5076711;28;20454;-66
2023/03/29 05:47:56;;;;;;;7.67;4.97;;;3.40;99.90;;;;;;5076623;28;20874;-66
2023/03/29 05:50:23;;;;;;;10.33;4.57;;;3.40;99.90;;;;;;5076709;28;20466;-67
2023/03/29 05:52:50;;;;;;;7.37;5.27;;;3.40;99.90;;;;;;5076810;28;20769;-68
2023/03/29 05:55:17;;;;;;;8.83;4.97;;;3.40;99.90;;;;;;5076222;28;20469;-67
2023/03/29 05:57:45;;;;;;;9.87;4.47;;;3.40;99.90;;;;;;5076499;28;20851;-67
2023/03/29 06:00:22;;;;;;;7.77;5.03;;;3.40;99.90;;;;;;5075796;28;20480;-67
2023/03/29 06:02:51;;;;;;;12.47;6.83;;;3.40;99.90;;;;;;5075917;28;20544;-66
2023/03/29 06:05:18;;;;;;;13.67;5.30;;;3.40;99.90;;;;;;5075935;28;20549;-67
2023/03/29 06:07:47;;;;;;;5.43;4.87;;;3.50;99.90;;;;;;5076078;28;20504;-67
2023/03/29 06:10:14;;;;;;;5.30;4.80;;;3.50;99.90;;;;;;5075813;28;20515;-67
2023/03/29 06:12:41;;;;;;;6.70;5.30;;;3.50;99.90;;;;;;5075756;28;20799;-68
2023/03/29 06:15:12;;;;;;;8.60;4.87;;;3.50;99.90;;;;;;5075222;28;20545;-68
2023/03/29 06:17:39;;;;;;;8.93;4.97;;;3.60;99.90;;;;;;5075502;28;20449;-67
2023/03/29 06:20:09;;;;;;;5.00;4.07;;;3.60;99.90;;;;;;5075067;28;20456;-68
2023/03/29 06:22:37;;;;;;;10.43;5.90;;;3.70;99.90;;;;;;5076146;28;20761;-68
2023/03/29 06:25:04;;;;;;;8.20;5.40;;;3.70;99.90;;;;;;5075221;28;20458;-68
2023/03/29 06:27:31;;;;;;;6.13;4.43;;;3.70;99.90;;;;;;5075182;28;20541;-68
2023/03/29 06:29:58;;;;;;;5.67;4.57;;;3.70;99.90;;;;;;5075692;28;20465;-68
2023/03/29 06:32:26;;;;;;;10.07;5.20;;;3.70;99.90;;;;;;5075179;28;20492;-67
2023/03/29 06:34:54;;;;;;;7.80;4.90;;;3.70;99.90;;;;;;5075409;28;20460;-69
2023/03/29 06:37:22;;;;;;;13.00;5.50;;;3.70;99.90;;;;;;5075065;28;20917;-68
2023/03/29 06:39:51;;;;;;;9.70;5.90;;;3.80;99.90;;;;;;5075292;28;20464;-68
2023/03/29 06:42:18;;;;;;;8.43;5.10;;;3.80;99.90;;;;;;5075603;28;20454;-68
2023/03/29 06:44:45;;;;;;;8.13;4.93;;;3.80;99.90;;;;;;5075066;28;20458;-67
2023/03/29 06:47:12;;;;;;;7.67;4.80;;;3.80;99.90;;;;;;5075221;28;20476;-67
2023/03/29 06:49:40;;;;;;;10.60;5.43;;;3.80;99.90;;;;;;5075215;28;20481;-67
2023/03/29 06:52:08;;;;;;;9.13;5.27;;;3.90;99.90;;;;;;5075544;28;20811;-68
2023/03/29 06:54:35;;;;;;;7.93;5.77;;;3.90;99.90;;;;;;5074925;28;20459;-68
2023/03/29 06:57:02;;;;;;;11.23;5.30;;;3.90;99.90;;;;;;5075352;28;20454;-67
2023/03/29 06:59:29;;;;;;;12.90;6.03;;;4.10;99.90;;;;;;5074960;28;20883;-67
2023/03/29 07:01:56;;;;;;;11.43;5.50;;;4.10;99.90;;;;;;5074580;28;20515;-68
2023/03/29 07:04:23;;;;;;;7.87;5.90;;;4.00;99.90;;;;;;5078655;28;20470;-67
2023/03/29 07:07:00;;;;;;;15.00;5.40;;;4.00;99.90;;;;;;5077250;28;20481;-69
2023/03/29 07:09:28;;;;;;;7.60;5.60;;;4.00;99.90;;;;;;5077630;28;20466;-68
2023/03/29 07:11:55;;;;;;;12.13;5.63;;;4.10;99.90;;;;;;5077453;28;20797;-67
2023/03/29 07:14:24;;;;;;;16.87;5.80;;;4.20;99.90;;;;;;5077000;28;20541;-68
2023/03/29 07:16:51;;;;;;;5.63;5.00;;;4.30;99.90;;;;;;5077230;28;20458;-68
2023/03/29 07:19:21;;;;;;;10.40;5.80;;;4.40;99.90;;;;;;5077064;28;20842;-68
2023/03/29 07:21:48;;;;;;;9.20;5.70;;;4.40;99.90;;;;;;5077259;28;20465;-68
2023/03/29 07:24:18;;;;;;;10.63;5.43;;;4.50;99.90;;;;;;5076986;28;20446;-67
2023/03/29 07:26:45;;;;;;;9.27;6.03;;;4.50;99.90;;;;;;5076590;28;20531;-69
2023/03/29 07:29:12;;;;;;;8.50;5.80;;;4.60;99.90;;;;;;5077108;28;20889;-68
2023/03/29 07:31:39;;;;;;;7.33;5.70;;;4.70;99.90;;;;;;5076815;28;20553;-67
2023/03/29 07:34:09;;;;;;;14.43;5.83;;;4.80;99.90;;;;;;5077129;28;20553;-67
2023/03/29 07:36:37;;;;;;;8.00;5.60;;;4.80;99.90;;;;;;5076518;28;20465;-68
2023/03/29 07:39:04;;;;;;;9.20;5.80;;;4.90;99.90;;;;;;5074893;28;20451;-69
2023/03/29 07:41:32;;;;;;;6.73;5.50;;;5.10;99.90;;;;;;5074252;28;20500;-69
2023/03/29 07:44:03;;;;;;;7.40;4.40;;;5.20;99.90;;;;;;5074604;28;20549;-69
2023/03/29 07:46:30;;;;;;;6.33;4.97;;;5.30;99.90;;;;;;5078689;28;20495;-69
2023/03/29 07:48:57;;;;;;;10.50;4.40;;;5.40;99.90;;;;;;5078550;28;20892;-70
2023/03/29 07:51:24;;;;;;;7.57;4.70;;;5.40;99.90;;;;;;5078588;28;20496;-70
2023/03/29 07:53:51;;;;;;;7.37;4.37;;;5.40;99.90;;;;;;5078222;28;20467;-70
2023/03/29 07:56:18;;;;;;;6.87;4.53;;;5.50;99.90;;;;;;5078674;28;20454;-70
2023/03/29 07:58:46;;;;;;;10.27;4.70;;;5.60;99.90;;;;;;5078241;28;20515;-70
2023/03/29 08:01:14;;;;;;;7.70;4.30;;;5.70;99.90;;;;;;5078209;28;20446;-70
2023/03/29 08:03:41;;;;;;;7.70;4.33;;;5.80;99.90;;;;;;5077979;28;20673;-70
2023/03/29 08:06:09;;;;;;;6.37;4.20;;;5.80;99.90;;;;;;5078826;28;20553;-70
2023/03/29 08:08:35;;;;;;;6.50;4.43;;;6.00;99.90;;;;;;5078571;28;20561;-70
2023/03/29 08:11:02;;;;;;;7.17;4.47;;;6.00;99.90;;;;;;5078890;28;20465;-71
2023/03/29 08:13:29;;;;;;;10.43;3.97;;;6.10;99.90;;;;;;5079090;28;20731;-70
2023/03/29 08:15:57;;;;;;;8.67;3.90;;;6.10;99.90;;;;;;5078864;28;20548;-70
2023/03/29 08:18:25;;;;;;;12.47;4.10;;;6.20;99.90;;;;;;5079100;28;20450;-69
2023/03/29 08:20:51;;;;;;;7.53;3.90;;;6.10;99.90;;;;;;5079546;28;20515;-71
2023/03/29 08:23:18;;;;;;;9.67;4.30;;;6.10;99.90;;;;;;5079493;28;20473;-70
2023/03/29 08:25:45;;;;;;;5.17;3.53;;;6.20;99.90;;;;;;5078050;28;20548;-70
2023/03/29 08:28:12;;;;;;;6.67;4.10;;;6.20;99.90;;;;;;5077959;28;20450;-70
2023/03/29 08:30:40;;;;;;;6.63;4.27;;;6.10;99.90;;;;;;5077590;28;20469;-70
2023/03/29 08:33:08;;;;;;;7.10;3.97;;;6.20;99.90;;;;;;5077690;28;20453;-70
2023/03/29 08:35:35;;;;;;;5.83;3.63;;;6.20;99.90;;;;;;5077836;28;20549;-70
2023/03/29 08:38:02;;;;;;;9.67;4.70;;;6.20;99.90;;;;;;5078062;28;20496;-70
2023/03/29 08:40:30;;;;;;;8.33;3.97;;;6.30;99.90;;;;;;5077770;28;20522;-69
2023/03/29 08:43:16;;;;;;;6.20;4.63;;;6.30;99.90;;;;;;5077895;28;20458;-69
2023/03/29 08:45:54;;;;;;;4.80;3.70;;;6.20;99.90;;;;;;5078083;28;20460;-70
2023/03/29 08:48:28;;;;;;;6.20;4.30;;;6.30;99.90;;;;;;5077571;28;20474;-70
2023/03/29 08:51:02;;;;;;;8.30;4.80;;;6.40;99.90;;;;;;5078002;28;20443;-69
2023/03/29 08:53:32;;;;;;;4.93;3.80;;;6.40;99.90;;;;;;5078175;28;20522;-68
2023/03/29 08:56:04;;;;;;;5.53;3.60;;;6.50;99.90;;;;;;5078252;28;20454;-69
2023/03/29 08:58:33;;;;;;;4.20;3.53;;;6.60;99.90;;;;;;5079091;28;20517;-70
2023/03/29 09:01:03;;;;;;;7.57;4.30;;;6.60;99.90;;;;;;5078085;28;20451;-69
2023/03/29 09:03:34;;;;;;;6.37;4.20;;;6.70;99.90;;;;;;5077730;28;20984;-70
2023/03/29 09:06:05;;;;;;;6.50;3.90;;;6.80;99.90;;;;;;5078504;28;20455;-69
2023/03/29 09:08:35;;;;;;;6.27;3.40;;;7.00;99.90;;;;;;5077532;28;20506;-69
2023/03/29 09:11:24;;;;;;;6.97;4.00;;;7.20;99.90;;;;;;5077459;28;20473;-71
2023/03/29 09:14:00;;;;;;;4.40;3.90;;;7.30;99.90;;;;;;5075027;28;20462;-69
2023/03/29 09:16:32;;;;;;;7.77;3.40;;;7.50;99.90;;;;;;5077226;28;20481;-69
2023/03/29 09:19:10;;;;;;;4.80;3.87;;;7.70;99.90;;;;;;5077763;28;20493;-69
2023/03/29 09:21:46;;;;;;;4.33;3.83;;;7.80;99.90;;;;;;5077015;28;20521;-69
2023/03/29 09:24:37;;;;;;;5.37;4.10;;;7.90;99.90;;;;;;5076844;28;20879;-68
2023/03/29 09:27:09;;;;;;;7.17;4.40;;;7.90;99.90;;;;;;5076621;28;20918;-69
2023/03/29 09:30:04;;;;;;;6.80;4.10;;;7.90;99.90;;;;;;5076719;28;20545;-70
2023/03/29 09:32:41;;;;;;;6.70;4.77;;;7.80;99.90;;;;;;5076674;28;20823;-70
2023/03/29 09:35:17;;;;;;;4.43;3.60;;;7.90;99.90;;;;;;5076619;28;20470;-70
2023/03/29 09:37:46;;;;;;;3.50;3.20;;;8.00;99.90;;;;;;5077097;28;20770;-70
2023/03/29 09:40:18;;;;;;;6.43;3.60;;;8.20;99.90;;;;;;5077098;28;20454;-69
2023/03/29 09:42:46;;;;;;;6.40;4.33;;;8.20;99.90;;;;;;5077359;28;20443;-69
2023/03/29 09:45:12;;;;;;;3.87;3.23;;;8.20;99.90;;;;;;5077138;28;20515;-68
2023/03/29 09:47:44;;;;;;;9.10;4.53;;;8.30;99.90;;;;;;5076771;28;20831;-68
2023/03/29 09:50:17;;;;;;;4.10;3.53;;;8.40;99.90;;;;;;5076901;28;20520;-68
2023/03/29 09:52:45;;;;;;;4.57;3.70;;;8.50;99.90;;;;;;5077521;28;20534;-68
2023/03/29 09:55:14;;;;;;;3.47;3.17;;;8.60;99.90;;;;;;5077507;28;20459;-68
2023/03/29 09:57:42;;;;;;;4.70;3.27;;;8.60;99.90;;;;;;5077404;28;20544;-69
2023/03/29 10:00:10;;;;;;;5.93;3.40;;;8.60;99.90;;;;;;5077073;28;20787;-69
2023/03/29 10:02:38;;;;;;;3.30;2.90;;;8.60;99.90;;;;;;5076663;28;20955;-70
2023/03/29 10:05:06;;;;;;;6.67;3.57;;;8.70;99.90;;;;;;5076728;28;20465;-68
2023/03/29 10:07:45;;;;;;;6.27;4.07;;;8.70;99.90;;;;;;5076265;28;20984;-68
2023/03/29 10:10:22;;;;;;;4.20;3.77;;;8.80;99.90;;;;;;5076398;28;20466;-69
2023/03/29 10:12:51;;;;;;;4.80;3.60;;;8.90;99.90;;;;;;5076489;28;20442;-69
2023/03/29 10:15:19;;;;;;;4.03;3.63;;;8.90;99.90;;;;;;5076847;28;20790;-69
2023/03/29 10:17:47;;;;;;;10.10;3.53;;;8.90;99.90;;;;;;5077025;28;20494;-68
2023/03/29 10:20:17;;;;;;;4.67;4.20;;;8.90;99.90;;;;;;5077385;28;20653;-68
2023/03/29 10:22:49;;;;;;;5.87;3.40;;;8.90;99.90;;;;;;5076406;28;20767;-69
2023/03/29 10:25:17;;;;;;;3.83;3.40;;;9.00;99.90;;;;;;5076541;28;20521;-69
2023/03/29 10:27:47;;;;;;;4.63;3.67;;;9.20;99.90;;;;;;5075829;28;20468;-69
2023/03/29 10:30:21;;;;;;;4.30;3.80;;;9.40;99.90;;;;;;5076061;28;20482;-69
2023/03/29 10:32:55;;;;;;;6.53;4.00;;;9.50;99.90;;;;;;5076056;28;20469;-69
2023/03/29 10:35:24;;;;;;;6.00;3.70;;;9.50;99.90;;;;;;5076204;28;20454;-68
2023/03/29 10:37:56;;;;;;;6.03;4.53;;;9.50;99.90;;;;;;5076003;28;20507;-70
2023/03/29 10:40:29;;;;;;;4.70;4.20;;;9.60;99.90;;;;;;5076031;28;20500;-68
2023/03/29 10:42:59;;;;;;;6.30;3.87;;;9.70;99.90;;;;;;5076235;28;20515;-69
2023/03/29 10:45:29;;;;;;;6.27;4.47;;;9.80;99.90;;;;;;5076302;28;20438;-70
2023/03/29 10:47:57;;;;;;;5.37;3.70;;;9.70;99.90;;;;;;5076199;28;20466;-69
2023/03/29 10:50:24;;;;;;;7.83;3.97;;;9.70;99.90;;;;;;5076141;28;20490;-69
2023/03/29 10:52:52;;;;;;;6.10;4.33;;;9.80;99.90;;;;;;5076336;28;20458;-69
2023/03/29 10:55:22;;;;;;;4.53;4.13;;;9.90;99.90;;;;;;5075926;28;20549;-68
2023/03/29 10:57:59;;;;;;;4.73;3.80;;;9.90;99.90;;;;;;5075195;28;20991;-69
2023/03/29 11:00:34;;;;;;;7.20;4.10;;;10.00;99.90;;;;;;5075530;28;20517;-69
2023/03/29 11:03:52;;;;;;;4.83;4.33;;;9.90;99.90;;;;;;5074754;28;20885;-68
2023/03/29 11:06:27;;;;;;;5.80;3.93;;;9.90;99.90;;;;;;5035126;28;21006;-68
2023/03/29 11:08:59;;;;;;;5.23;3.77;;;9.90;99.90;;;;;;5075368;28;20490;-68
2023/03/29 11:11:54;;;;;;;5.23;4.00;;;10.00;99.90;;;;;;5075072;28;20970;-69
2023/03/29 11:14:30;;;;;;;4.30;3.73;;;10.10;99.90;;;;;;5072867;28;20544;-69
2023/03/29 11:17:07;;;;;;;4.87;3.50;;;10.20;99.90;;;;;;5074876;28;20482;-68
2023/03/29 11:19:55;;;;;;;6.90;4.30;;;10.10;99.90;;;;;;5074220;28;20448;-69
2023/03/29 11:22:29;;;;;;;3.93;3.47;;;10.10;99.90;;;;;;5075325;28;20450;-68
2023/03/29 11:25:13;;;;;;;5.43;3.97;;;10.10;99.90;;;;;;5075278;28;20437;-71
2023/03/29 11:27:46;;;;;;;4.77;4.27;;;10.30;99.90;;;;;;5074391;28;20434;-68
2023/03/29 11:30:22;;;;;;;4.33;3.93;;;10.60;99.90;;;;;;5074193;28;20553;-69
2023/03/29 11:33:00;;;;;;;5.87;3.90;;;10.60;99.90;;;;;;5074747;28;20453;-69
2023/03/29 11:35:41;;;;;;;4.63;4.13;;;10.70;99.90;;;;;;5074135;28;20449;-69
2023/03/29 11:38:16;;;;;;;8.47;3.50;;;10.70;99.90;;;;;;5074498;28;20434;-69
2023/03/29 11:40:53;;;;;;;12.00;4.10;;;10.80;99.90;;;;;;5074546;28;20534;-68
2023/03/29 11:43:26;;;;;;;5.00;3.70;;;10.90;99.90;;;;;;5075033;28;20442;-69
2023/03/29 11:45:59;;;;;;;4.17;3.77;;;11.10;99.90;;;;;;5074479;28;20505;-69
2023/03/29 11:48:31;;;;;;;8.40;4.07;;;11.10;99.90;;;;;;5074365;28;20553;-69
2023/03/29 11:51:04;;;;;;;4.47;3.47;;;11.10;99.90;;;;;;5074784;28;20548;-70
2023/03/29 11:53:36;;;;;;;8.27;4.47;;;11.00;99.90;;;;;;5074806;28;20470;-68
2023/03/29 11:56:12;;;;;;;7.20;4.07;;;11.10;99.90;;;;;;5074769;28;20530;-69
2023/03/29 11:58:43;;;;;;;5.30;4.40;;;10.90;99.90;;;;;;5074754;28;20442;-69
2023/03/29 12:01:14;;;;;;;5.17;4.30;;;10.90;99.90;;;;;;5074113;28;20440;-69
2023/03/29 12:03:47;;;;;;;4.70;3.93;;;10.80;99.90;;;;;;5074503;28;20854;-69
2023/03/29 12:06:21;;;;;;;5.20;4.20;;;10.90;99.90;;;;;;5075076;28;20843;-69
2023/03/29 12:08:54;;;;;;;9.60;5.37;;;11.10;99.90;;;;;;5074990;28;20450;-68
2023/03/29 12:11:29;;;;;;;5.03;3.90;;;11.30;99.90;;;;;;5074231;28;20467;-69
2023/03/29 12:14:03;;;;;;;4.60;4.07;;;11.40;99.90;;;;;;5074493;28;20441;-69
2023/03/29 12:16:34;;;;;;;9.77;5.40;;;11.70;99.90;;;;;;5074910;28;20446;-69
2023/03/29 12:19:06;;;;;;;3.80;3.50;;;12.00;99.90;;;;;;5074400;28;20442;-68
2023/03/29 12:21:36;;;;;;;5.00;3.60;;;12.10;99.90;;;;;;5074292;28;20812;-69
2023/03/29 12:24:03;;;;;;;5.47;3.70;;;12.20;99.90;;;;;;5074158;28;20462;-69
2023/03/29 12:27:02;;;;;;;5.00;3.70;;;12.10;99.90;;;;;;5074264;28;20512;-68
2023/03/29 12:29:47;;;;;;;4.00;3.13;;;12.20;99.90;;;;;;5071302;28;20493;-69
2023/03/29 12:32:32;;;;;;;5.63;3.40;;;12.40;99.90;;;;;;5077385;28;20982;-69
2023/03/29 12:35:11;;;;;;;5.27;4.10;;;12.10;99.90;;;;;;5078277;28;20439;-69
2023/03/29 12:37:45;;;;;;;4.87;3.87;;;11.70;99.90;;;;;;5077551;28;20958;-69
2023/03/29 12:40:15;;;;;;;6.17;3.73;;;11.30;99.90;;;;;;5078007;28;20521;-68
2023/03/29 12:42:48;;;;;;;4.23;3.80;;;11.20;99.90;;;;;;5077423;28;20770;-69
2023/03/29 12:45:20;;;;;;;4.30;3.80;;;11.10;99.90;;;;;;5077721;28;20442;-69
2023/03/29 12:47:48;;;;;;;4.10;3.70;;;10.90;99.90;;;;;;5078037;28;20460;-68
2023/03/29 12:50:27;;;;;;;4.70;4.00;;;10.90;99.90;;;;;;5077249;28;20572;-68
2023/03/29 12:53:03;;;;;;;4.20;3.80;;;10.90;99.90;;;;;;5077359;28;20453;-68
2023/03/29 12:55:32;;;;;;;4.60;3.93;;;11.00;99.90;;;;;;5077192;28;20450;-68
2023/03/29 12:58:07;;;;;;;5.90;4.20;;;11.10;99.90;;;;;;5077335;28;20558;-68
2023/03/29 13:00:43;;;;;;;5.87;4.40;;;11.00;99.90;;;;;;5078243;28;20795;-68
2023/03/29 13:03:29;;;;;;;5.53;4.30;;;10.90;99.90;;;;;;5076642;28;20492;-68
2023/03/29 13:06:01;;;;;;;5.23;4.17;;;11.10;99.90;;;;;;5076606;28;20533;-68
2023/03/29 13:08:34;;;;;;;5.30;4.50;;;11.30;99.90;;;;;;5077398;28;20502;-68
2023/03/29 13:11:02;;;;;;;5.57;3.93;;;11.60;99.90;;;;;;5076877;28;20939;-67